createdAt,value
2022-09-06T00:01:42.463Z,14.97
2022-09-06T00:06:44.478Z,14.92
2022-09-06T00:11:46.013Z,14.85
2022-09-06T00:16:47.586Z,14.8
2022-09-06T00:21:49.576Z,14.77
2022-09-06T00:26:51.084Z,14.74
2022-09-06T00:31:52.434Z,14.7
2022-09-06T00:36:54.187Z,14.65
2022-09-06T00:41:55.641Z,14.63
2022-09-06T00:46:57.600Z,14.59
2022-09-06T00:52:07.005Z,14.59
2022-09-06T00:57:01.096Z,14.57
2022-09-06T01:02:02.665Z,14.58
2022-09-06T01:07:04.629Z,14.55
2022-09-06T01:12:06.453Z,14.54
2022-09-06T01:17:08.464Z,14.5
2022-09-06T01:22:09.779Z,14.48
2022-09-06T01:27:11.271Z,14.46
2022-09-06T01:32:12.853Z,14.42
2022-09-06T01:37:14.543Z,14.38
2022-09-06T01:42:16.479Z,14.35
2022-09-06T01:47:18.644Z,14.32
2022-09-06T01:52:20.676Z,14.3
2022-09-06T01:57:22.106Z,14.27
2022-09-06T02:02:23.772Z,14.24
2022-09-06T02:07:25.690Z,14.21
2022-09-06T02:12:26.900Z,14.18
2022-09-06T02:17:29.046Z,14.16
2022-09-06T02:22:30.320Z,14.13
2022-09-06T02:27:32.080Z,14.1
2022-09-06T02:32:33.495Z,14.08
2022-09-06T02:37:35.278Z,14.04
2022-09-06T02:42:37.037Z,14.01
2022-09-06T02:47:38.668Z,14
2022-09-06T02:52:40.080Z,13.96
2022-09-06T02:57:42.244Z,13.89
2022-09-06T03:02:44.406Z,13.86
2022-09-06T03:07:46.337Z,13.82
2022-09-06T03:37:57.794Z,13.53
2022-09-06T03:58:05.362Z,13.44
2022-09-06T04:23:13.242Z,13.26
2022-09-06T04:28:14.650Z,13.23
2022-09-06T04:33:16.839Z,13.2
2022-09-06T04:38:28.044Z,13.16
2022-09-06T04:43:20.383Z,13.14
2022-09-06T04:48:22.476Z,13.13
2022-09-06T04:53:23.812Z,13.13
2022-09-06T04:58:25.252Z,13.17
2022-09-06T05:03:27.317Z,13.22
2022-09-06T05:08:29.413Z,13.26
2022-09-06T05:13:30.831Z,13.3
2022-09-06T05:18:32.285Z,13.34
2022-09-06T05:23:34.326Z,13.4
2022-09-06T05:28:35.604Z,13.43
2022-09-06T05:33:37.394Z,13.46
2022-09-06T05:38:39.148Z,13.51
2022-09-06T05:43:40.518Z,13.57
2022-09-06T05:48:42.472Z,13.67
2022-09-06T05:53:44.100Z,13.77
2022-09-06T05:58:46.073Z,13.85
2022-09-06T06:03:47.524Z,14.04
2022-09-06T06:08:49.065Z,14.27
2022-09-06T06:13:51.131Z,14.48
2022-09-06T06:18:53.169Z,14.63
2022-09-06T06:23:55.074Z,14.75
2022-09-06T06:28:56.245Z,14.96
2022-09-06T06:33:58.339Z,15.1
2022-09-06T06:38:59.667Z,15.21
2022-09-06T06:44:01.171Z,15.38
2022-09-06T06:49:02.645Z,15.62
2022-09-06T06:54:03.990Z,15.87
2022-09-06T06:59:05.835Z,16.2
2022-09-06T07:04:07.132Z,16.51
2022-09-06T07:09:09.090Z,16.87
2022-09-06T07:14:11.100Z,17.14
2022-09-06T07:24:14.023Z,17.62
2022-09-06T07:29:16.111Z,17.78
2022-09-06T07:34:17.983Z,17.93
2022-09-06T07:39:19.443Z,18.08
2022-09-06T07:44:21.330Z,18.21
2022-09-06T07:49:22.837Z,18.29
2022-09-06T07:54:30.203Z,18.4
2022-09-06T07:59:25.448Z,18.53
2022-09-06T08:04:26.581Z,18.68
2022-09-06T08:09:27.820Z,18.79
2022-09-06T08:14:29.073Z,18.93
2022-09-06T08:19:31.093Z,19.16
2022-09-06T08:24:32.964Z,19.57
2022-09-06T08:29:34.251Z,19.78
2022-09-06T08:34:35.579Z,19.76
2022-09-06T08:39:37.200Z,19.83
2022-09-06T08:49:40.089Z,20.04
2022-09-06T08:54:50.632Z,20.12
2022-09-06T08:59:43.716Z,20.31
2022-09-06T09:04:45.079Z,20.48
2022-09-06T09:09:46.575Z,20.99
2022-09-06T09:14:48.680Z,20.97
2022-09-06T09:19:56.644Z,21.05
2022-09-06T09:24:58.201Z,21.04
2022-09-06T09:35:00.837Z,21.76
2022-09-06T09:40:02.512Z,22.1
2022-09-06T09:45:04.380Z,22.53
2022-09-06T09:50:05.982Z,23.05
2022-09-06T09:55:07.208Z,23.2
2022-09-06T10:00:09.151Z,23.3
2022-09-06T10:05:11.159Z,23.62
2022-09-06T10:10:13.055Z,23.95
2022-09-06T10:15:15.086Z,24.33
2022-09-06T10:20:16.584Z,24.57
2022-09-06T10:25:18.035Z,24.78
2022-09-06T10:30:19.272Z,25
2022-09-06T10:35:21.370Z,25.12
2022-09-06T10:40:22.835Z,25.05
2022-09-06T10:45:24.808Z,25.32
2022-09-06T10:50:35.775Z,25.35
2022-09-06T10:55:27.956Z,25.51
2022-09-06T11:00:30.052Z,25.53
2022-09-06T11:05:38.957Z,25.69
2022-09-06T11:10:33.575Z,25.78
2022-09-06T11:15:35.148Z,25.91
2022-09-06T11:20:36.850Z,26.05
2022-09-06T11:25:38.951Z,26.2
2022-09-06T11:30:40.239Z,26.42
2022-09-06T11:35:41.469Z,26.44
2022-09-06T11:40:43.031Z,26.49
2022-09-06T11:45:44.918Z,26.49
2022-09-06T11:50:46.186Z,26.52
2022-09-06T11:55:47.808Z,26.65
2022-09-06T12:00:49.701Z,26.85
2022-09-06T12:05:51.325Z,27.01
2022-09-06T12:10:52.732Z,27.07
2022-09-06T12:15:54.171Z,27.04
2022-09-06T12:20:55.704Z,26.67
2022-09-06T12:25:56.928Z,26.67
2022-09-06T12:30:58.621Z,26.7
2022-09-06T12:36:01.399Z,26.83
2022-09-06T12:41:01.985Z,26.84
2022-09-06T12:46:04.066Z,26.64
2022-09-06T12:51:05.468Z,26.65
2022-09-06T12:56:07.299Z,26.8
2022-09-06T13:01:08.549Z,26.73
2022-09-06T13:06:10.087Z,26.64
2022-09-06T13:11:12.172Z,26.49
2022-09-06T13:16:13.655Z,26.5
2022-09-06T13:21:15.575Z,26.55
2022-09-06T13:26:17.313Z,26.48
2022-09-06T13:31:18.685Z,26.43
2022-09-06T13:36:20.085Z,26.35
2022-09-06T13:41:22.196Z,26.3
2022-09-06T13:46:23.819Z,26.24
2022-09-06T13:51:25.581Z,26.16
2022-09-06T13:56:27.204Z,25.99
2022-09-06T14:01:29.074Z,25.91
2022-09-06T14:06:34.771Z,25.83
2022-09-06T14:11:32.396Z,25.74
2022-09-06T14:16:34.155Z,25.72
2022-09-06T14:21:36.023Z,25.78
2022-09-06T14:26:38.132Z,25.85
2022-09-06T14:31:39.676Z,25.95
2022-09-06T14:36:41.836Z,25.95
2022-09-06T14:41:43.822Z,26.08
2022-09-06T14:46:45.459Z,25.99
2022-09-06T14:51:47.215Z,26.06
2022-09-06T14:56:56.729Z,26
2022-09-06T15:01:50.438Z,25.94
2022-09-06T15:06:52.405Z,25.89
2022-09-06T15:11:53.765Z,25.82
2022-09-06T15:16:56.268Z,25.75
2022-09-06T15:21:57.169Z,25.63
2022-09-06T15:26:59.314Z,25.6
2022-09-06T15:32:00.908Z,25.53
2022-09-06T15:37:02.774Z,25.44
2022-09-06T15:42:04.235Z,25.36
2022-09-06T15:47:05.475Z,25.34
2022-09-06T15:52:06.980Z,25.27
2022-09-06T15:57:08.403Z,25.19
2022-09-06T16:02:10.650Z,25.07
2022-09-06T16:07:11.969Z,24.98
2022-09-06T16:12:14.113Z,24.92
2022-09-06T16:17:16.259Z,24.86
2022-09-06T16:22:17.473Z,24.8
2022-09-06T16:27:19.444Z,24.74
2022-09-06T16:32:21.541Z,24.65
2022-09-06T16:37:23.517Z,24.56
2022-09-06T16:42:25.144Z,24.42
2022-09-06T16:47:26.616Z,24.31
2022-09-06T16:52:28.215Z,24.16
2022-09-06T16:57:29.564Z,24.02
2022-09-06T17:02:31.456Z,23.83
2022-09-06T17:07:32.884Z,23.66
2022-09-06T17:12:34.633Z,23.55
2022-09-06T17:17:36.387Z,23.44
2022-09-06T17:22:38.213Z,23.34
2022-09-06T17:27:39.622Z,23.23
2022-09-06T17:32:41.590Z,23.13
2022-09-06T17:37:42.811Z,23.01
2022-09-06T17:42:44.136Z,22.89
2022-09-06T17:47:46.166Z,22.76
2022-09-06T18:07:53.143Z,22.15
2022-09-06T18:12:55.259Z,22
2022-09-06T18:48:07.911Z,21.17
2022-09-06T18:53:09.320Z,21.04
2022-09-06T18:58:10.585Z,20.93
2022-09-06T19:08:14.053Z,20.66
2022-09-06T19:13:16.118Z,20.55
2022-09-06T19:18:17.192Z,20.45
2022-09-06T19:23:18.954Z,20.33
2022-09-06T19:28:20.660Z,20.23
2022-09-06T19:33:22.416Z,20.11
2022-09-06T19:38:23.676Z,20.01
2022-09-06T19:43:25.389Z,19.92
2022-09-06T19:48:27.609Z,19.83
2022-09-06T19:53:46.505Z,19.74
2022-09-06T19:58:31.172Z,19.67
2022-09-06T20:03:32.729Z,19.58
2022-09-06T20:08:34.300Z,19.51
2022-09-06T20:13:35.781Z,19.4
2022-09-06T20:18:37.766Z,19.29
2022-09-06T20:23:39.567Z,19.21
2022-09-06T20:28:40.764Z,19.15
2022-09-06T20:33:45.873Z,19.11
2022-09-06T20:38:44.547Z,19.08
2022-09-06T20:43:46.022Z,18.99
2022-09-06T20:48:47.523Z,18.93
2022-09-06T20:53:49.636Z,18.87
2022-09-06T20:58:50.942Z,18.79
2022-09-06T21:03:52.435Z,18.66
2022-09-06T21:08:54.335Z,18.61
2022-09-06T21:13:55.764Z,18.59
2022-09-06T21:18:57.148Z,18.57
2022-09-06T21:23:58.453Z,18.52
2022-09-06T21:29:00.229Z,18.46
2022-09-06T21:34:02.156Z,18.41
2022-09-06T21:39:03.650Z,18.36
2022-09-06T21:44:05.794Z,18.31
2022-09-06T21:49:07.693Z,18.26
2022-09-06T21:54:09.015Z,18.2
2022-09-06T21:59:10.539Z,18.12
2022-09-06T22:14:15.461Z,17.94
2022-09-06T22:19:17.416Z,17.86
2022-09-06T22:24:19.413Z,17.78
2022-09-06T22:29:20.727Z,17.69
2022-09-06T22:34:22.820Z,17.62
2022-09-06T22:39:24.028Z,17.54
2022-09-06T22:44:25.267Z,17.45
2022-09-06T22:49:26.733Z,17.37
2022-09-06T22:54:28.170Z,17.29
2022-09-06T22:59:29.817Z,17.23
2022-09-06T23:04:31.299Z,17.14
2022-09-06T23:09:33.360Z,17.09
2022-09-06T23:14:34.614Z,17.01
2022-09-06T23:19:36.421Z,16.95
2022-09-06T23:24:38.061Z,16.87
2022-09-06T23:29:39.684Z,16.82
2022-09-06T23:34:41.738Z,16.74
2022-09-06T23:39:43.410Z,16.7
2022-09-06T23:44:44.884Z,16.64
2022-09-06T23:49:46.864Z,16.62
2022-09-06T23:54:48.268Z,16.57
2022-09-06T23:59:49.466Z,16.53
